sensor_id;sensor_type;location;lat;lon;timestamp;P1;durP1;ratioP1;P2;durP2;ratioP2
12947;SDS011;6539;49.476;8.484;2023-06-14T00:02:27;6.03;;;4.37;;
12947;SDS011;6539;49.476;8.484;2023-06-14T00:04:53;7.43;;;4.60;;
12947;SDS011;6539;49.476;8.484;2023-06-14T00:07:22;5.07;;;4.23;;
12947;SDS011;6539;49.476;8.484;2023-06-14T00:10:08;8.57;;;4.60;;
12947;SDS011;6539;49.476;8.484;2023-06-14T00:12:37;5.07;;;4.20;;
12947;SDS011;6539;49.476;8.484;2023-06-14T00:15:04;4.40;;;4.00;;
12947;SDS011;6539;49.476;8.484;2023-06-14T00:17:34;4.43;;;3.90;;
12947;SDS011;6539;49.476;8.484;2023-06-14T00:20:03;6.73;;;4.57;;
12947;SDS011;6539;49.476;8.484;2023-06-14T00:22:34;6.20;;;4.00;;
12947;SDS011;6539;49.476;8.484;2023-06-14T00:25:01;5.07;;;4.30;;
12947;SDS011;6539;49.476;8.484;2023-06-14T00:27:27;9.80;;;5.03;;
12947;SDS011;6539;49.476;8.484;2023-06-14T00:29:53;7.57;;;4.07;;
12947;SDS011;6539;49.476;8.484;2023-06-14T00:32:23;6.33;;;4.60;;
12947;SDS011;6539;49.476;8.484;2023-06-14T00:34:50;4.80;;;4.33;;
12947;SDS011;6539;49.476;8.484;2023-06-14T00:37:19;5.30;;;4.77;;
12947;SDS011;6539;49.476;8.484;2023-06-14T00:39:44;4.93;;;4.43;;
12947;SDS011;6539;49.476;8.484;2023-06-14T00:42:22;5.47;;;4.17;;
12947;SDS011;6539;49.476;8.484;2023-06-14T00:44:50;5.37;;;4.40;;
12947;SDS011;6539;49.476;8.484;2023-06-14T00:47:20;4.77;;;4.17;;
12947;SDS011;6539;49.476;8.484;2023-06-14T00:49:51;6.37;;;4.60;;
12947;SDS011;6539;49.476;8.484;2023-06-14T00:52:22;5.53;;;4.00;;
12947;SDS011;6539;49.476;8.484;2023-06-14T00:54:52;8.73;;;4.37;;
12947;SDS011;6539;49.476;8.484;2023-06-14T00:57:20;5.20;;;4.63;;
12947;SDS011;6539;49.476;8.484;2023-06-14T00:59:47;4.73;;;4.23;;
12947;SDS011;6539;49.476;8.484;2023-06-14T01:02:17;7.27;;;4.50;;
12947;SDS011;6539;49.476;8.484;2023-06-14T01:04:45;6.73;;;4.60;;
12947;SDS011;6539;49.476;8.484;2023-06-14T01:10:15;4.40;;;4.00;;
12947;SDS011;6539;49.476;8.484;2023-06-14T01:15:35;5.07;;;4.50;;
12947;SDS011;6539;49.476;8.484;2023-06-14T01:18:03;6.43;;;4.60;;
12947;SDS011;6539;49.476;8.484;2023-06-14T01:20:31;5.37;;;4.83;;
12947;SDS011;6539;49.476;8.484;2023-06-14T01:23:03;8.00;;;5.27;;
12947;SDS011;6539;49.476;8.484;2023-06-14T01:25:29;7.17;;;4.90;;
12947;SDS011;6539;49.476;8.484;2023-06-14T01:27:58;7.13;;;4.43;;
12947;SDS011;6539;49.476;8.484;2023-06-14T01:30:29;7.03;;;4.63;;
12947;SDS011;6539;49.476;8.484;2023-06-14T01:32:58;5.00;;;4.50;;
12947;SDS011;6539;49.476;8.484;2023-06-14T01:35:24;6.77;;;5.03;;
12947;SDS011;6539;49.476;8.484;2023-06-14T01:37:50;5.73;;;4.57;;
12947;SDS011;6539;49.476;8.484;2023-06-14T01:40:18;9.53;;;4.50;;
12947;SDS011;6539;49.476;8.484;2023-06-14T01:42:49;5.57;;;4.53;;
12947;SDS011;6539;49.476;8.484;2023-06-14T01:45:19;5.53;;;4.93;;
12947;SDS011;6539;49.476;8.484;2023-06-14T01:47:46;6.63;;;4.53;;
12947;SDS011;6539;49.476;8.484;2023-06-14T01:50:13;6.97;;;4.63;;
12947;SDS011;6539;49.476;8.484;2023-06-14T01:52:39;9.63;;;4.47;;
12947;SDS011;6539;49.476;8.484;2023-06-14T01:55:07;8.10;;;4.93;;
12947;SDS011;6539;49.476;8.484;2023-06-14T01:57:34;6.67;;;4.57;;
12947;SDS011;6539;49.476;8.484;2023-06-14T01:59:59;9.90;;;5.40;;
12947;SDS011;6539;49.476;8.484;2023-06-14T02:02:28;5.23;;;4.77;;
12947;SDS011;6539;49.476;8.484;2023-06-14T02:04:57;7.53;;;5.00;;
12947;SDS011;6539;49.476;8.484;2023-06-14T02:07:23;6.50;;;4.90;;
12947;SDS011;6539;49.476;8.484;2023-06-14T02:09:51;8.10;;;5.50;;
12947;SDS011;6539;49.476;8.484;2023-06-14T02:12:19;8.03;;;4.80;;
12947;SDS011;6539;49.476;8.484;2023-06-14T02:14:45;5.40;;;4.90;;
12947;SDS011;6539;49.476;8.484;2023-06-14T02:17:16;8.03;;;5.03;;
12947;SDS011;6539;49.476;8.484;2023-06-14T02:19:44;7.90;;;4.80;;
12947;SDS011;6539;49.476;8.484;2023-06-14T02:22:09;7.47;;;5.40;;
12947;SDS011;6539;49.476;8.484;2023-06-14T02:24:35;7.83;;;4.83;;
12947;SDS011;6539;49.476;8.484;2023-06-14T02:27:03;6.33;;;4.83;;
12947;SDS011;6539;49.476;8.484;2023-06-14T02:29:32;8.13;;;4.60;;
12947;SDS011;6539;49.476;8.484;2023-06-14T02:32:00;7.83;;;5.23;;
12947;SDS011;6539;49.476;8.484;2023-06-14T02:34:26;8.73;;;5.20;;
12947;SDS011;6539;49.476;8.484;2023-06-14T02:36:52;8.60;;;5.47;;
12947;SDS011;6539;49.476;8.484;2023-06-14T02:39:20;13.10;;;4.97;;
12947;SDS011;6539;49.476;8.484;2023-06-14T02:41:49;6.80;;;5.07;;
12947;SDS011;6539;49.476;8.484;2023-06-14T02:44:17;9.07;;;6.17;;
12947;SDS011;6539;49.476;8.484;2023-06-14T02:46:44;7.80;;;5.27;;
12947;SDS011;6539;49.476;8.484;2023-06-14T02:49:10;9.73;;;5.43;;
12947;SDS011;6539;49.476;8.484;2023-06-14T02:51:37;12.87;;;6.00;;
12947;SDS011;6539;49.476;8.484;2023-06-14T02:54:02;12.97;;;5.63;;
12947;SDS011;6539;49.476;8.484;2023-06-14T02:56:35;9.00;;;6.10;;
12947;SDS011;6539;49.476;8.484;2023-06-14T02:59:01;6.57;;;5.70;;
12947;SDS011;6539;49.476;8.484;2023-06-14T03:01:27;9.83;;;5.77;;
12947;SDS011;6539;49.476;8.484;2023-06-14T03:04:00;6.87;;;6.17;;
12947;SDS011;6539;49.476;8.484;2023-06-14T03:06:29;8.67;;;5.50;;
12947;SDS011;6539;49.476;8.484;2023-06-14T03:08:58;8.80;;;6.23;;
12947;SDS011;6539;49.476;8.484;2023-06-14T03:11:29;10.50;;;6.53;;
12947;SDS011;6539;49.476;8.484;2023-06-14T03:13:56;6.87;;;5.70;;
12947;SDS011;6539;49.476;8.484;2023-06-14T03:16:22;6.77;;;6.17;;
12947;SDS011;6539;49.476;8.484;2023-06-14T03:18:51;10.97;;;6.40;;
12947;SDS011;6539;49.476;8.484;2023-06-14T03:21:20;7.10;;;5.53;;
12947;SDS011;6539;49.476;8.484;2023-06-14T03:23:46;7.87;;;6.07;;
12947;SDS011;6539;49.476;8.484;2023-06-14T03:26:13;7.07;;;5.90;;
12947;SDS011;6539;49.476;8.484;2023-06-14T03:28:46;7.90;;;5.47;;
12947;SDS011;6539;49.476;8.484;2023-06-14T03:31:14;7.03;;;5.67;;
12947;SDS011;6539;49.476;8.484;2023-06-14T03:33:41;6.93;;;5.80;;
12947;SDS011;6539;49.476;8.484;2023-06-14T03:36:07;7.47;;;5.10;;
12947;SDS011;6539;49.476;8.484;2023-06-14T03:38:35;9.20;;;5.20;;
12947;SDS011;6539;49.476;8.484;2023-06-14T03:41:06;6.50;;;5.17;;
12947;SDS011;6539;49.476;8.484;2023-06-14T03:43:32;6.90;;;5.00;;
12947;SDS011;6539;49.476;8.484;2023-06-14T03:45:58;8.80;;;5.77;;
12947;SDS011;6539;49.476;8.484;2023-06-14T03:48:31;9.60;;;5.30;;
12947;SDS011;6539;49.476;8.484;2023-06-14T03:50:58;7.20;;;5.90;;
12947;SDS011;6539;49.476;8.484;2023-06-14T03:53:23;8.57;;;5.47;;
12947;SDS011;6539;49.476;8.484;2023-06-14T03:55:49;7.60;;;5.53;;
12947;SDS011;6539;49.476;8.484;2023-06-14T03:58:19;10.83;;;5.77;;
12947;SDS011;6539;49.476;8.484;2023-06-14T04:00:50;8.40;;;5.23;;
12947;SDS011;6539;49.476;8.484;2023-06-14T04:03:18;7.87;;;5.50;;
12947;SDS011;6539;49.476;8.484;2023-06-14T04:05:44;9.63;;;5.70;;
12947;SDS011;6539;49.476;8.484;2023-06-14T04:08:14;5.80;;;5.30;;
12947;SDS011;6539;49.476;8.484;2023-06-14T04:10:41;10.47;;;5.87;;
12947;SDS011;6539;49.476;8.484;2023-06-14T04:13:06;6.83;;;5.23;;
12947;SDS011;6539;49.476;8.484;2023-06-14T04:15:32;7.37;;;5.50;;
12947;SDS011;6539;49.476;8.484;2023-06-14T04:17:58;12.40;;;5.73;;
12947;SDS011;6539;49.476;8.484;2023-06-14T04:20:25;6.73;;;4.90;;
12947;SDS011;6539;49.476;8.484;2023-06-14T04:22:51;8.33;;;5.50;;
12947;SDS011;6539;49.476;8.484;2023-06-14T04:25:20;5.97;;;5.33;;
12947;SDS011;6539;49.476;8.484;2023-06-14T04:27:46;6.77;;;5.13;;
12947;SDS011;6539;49.476;8.484;2023-06-14T04:30:15;8.97;;;5.73;;
12947;SDS011;6539;49.476;8.484;2023-06-14T04:32:42;8.67;;;5.40;;
12947;SDS011;6539;49.476;8.484;2023-06-14T04:35:10;7.90;;;5.63;;
12947;SDS011;6539;49.476;8.484;2023-06-14T04:37:42;10.60;;;6.00;;
12947;SDS011;6539;49.476;8.484;2023-06-14T04:40:08;15.70;;;5.87;;
12947;SDS011;6539;49.476;8.484;2023-06-14T04:42:37;8.20;;;5.97;;
12947;SDS011;6539;49.476;8.484;2023-06-14T04:45:05;7.13;;;5.77;;
12947;SDS011;6539;49.476;8.484;2023-06-14T04:47:32;10.83;;;5.87;;
12947;SDS011;6539;49.476;8.484;2023-06-14T04:49:59;9.97;;;6.00;;
12947;SDS011;6539;49.476;8.484;2023-06-14T04:52:28;7.40;;;5.57;;
12947;SDS011;6539;49.476;8.484;2023-06-14T04:54:54;9.70;;;5.63;;
12947;SDS011;6539;49.476;8.484;2023-06-14T04:57:26;7.17;;;5.97;;
12947;SDS011;6539;49.476;8.484;2023-06-14T04:59:54;6.83;;;5.60;;
12947;SDS011;6539;49.476;8.484;2023-06-14T05:02:20;8.00;;;5.50;;
12947;SDS011;6539;49.476;8.484;2023-06-14T05:04:49;9.97;;;5.93;;
12947;SDS011;6539;49.476;8.484;2023-06-14T05:07:18;8.13;;;5.57;;
12947;SDS011;6539;49.476;8.484;2023-06-14T05:09:51;10.63;;;5.73;;
12947;SDS011;6539;49.476;8.484;2023-06-14T05:12:24;7.23;;;5.07;;
12947;SDS011;6539;49.476;8.484;2023-06-14T05:14:50;8.73;;;5.30;;
12947;SDS011;6539;49.476;8.484;2023-06-14T05:17:15;9.10;;;6.03;;
12947;SDS011;6539;49.476;8.484;2023-06-14T05:19:44;7.53;;;5.43;;
12947;SDS011;6539;49.476;8.484;2023-06-14T05:22:11;7.33;;;4.93;;
12947;SDS011;6539;49.476;8.484;2023-06-14T05:24:37;9.03;;;5.37;;
12947;SDS011;6539;49.476;8.484;2023-06-14T05:27:06;8.43;;;5.27;;
12947;SDS011;6539;49.476;8.484;2023-06-14T05:29:35;8.70;;;5.47;;
12947;SDS011;6539;49.476;8.484;2023-06-14T05:32:01;6.07;;;5.10;;
12947;SDS011;6539;49.476;8.484;2023-06-14T05:34:29;7.83;;;5.47;;
12947;SDS011;6539;49.476;8.484;2023-06-14T05:36:57;11.27;;;5.37;;
12947;SDS011;6539;49.476;8.484;2023-06-14T05:39:23;19.20;;;7.83;;
12947;SDS011;6539;49.476;8.484;2023-06-14T05:41:49;12.63;;;6.80;;
12947;SDS011;6539;49.476;8.484;2023-06-14T05:44:17;15.73;;;8.63;;
12947;SDS011;6539;49.476;8.484;2023-06-14T05:46:45;11.67;;;6.20;;
12947;SDS011;6539;49.476;8.484;2023-06-14T05:49:11;10.00;;;5.53;;
12947;SDS011;6539;49.476;8.484;2023-06-14T05:51:39;8.40;;;5.47;;
12947;SDS011;6539;49.476;8.484;2023-06-14T05:54:07;12.37;;;8.37;;
12947;SDS011;6539;49.476;8.484;2023-06-14T05:56:33;5.80;;;5.13;;
12947;SDS011;6539;49.476;8.484;2023-06-14T05:58:59;8.77;;;5.17;;
12947;SDS011;6539;49.476;8.484;2023-06-14T06:01:25;6.90;;;6.03;;
12947;SDS011;6539;49.476;8.484;2023-06-14T06:03:51;7.10;;;5.90;;
12947;SDS011;6539;49.476;8.484;2023-06-14T06:06:19;10.90;;;7.13;;
12947;SDS011;6539;49.476;8.484;2023-06-14T06:08:45;10.53;;;6.10;;
12947;SDS011;6539;49.476;8.484;2023-06-14T06:11:11;4.70;;;4.20;;
12947;SDS011;6539;49.476;8.484;2023-06-14T06:13:39;5.43;;;4.37;;
12947;SDS011;6539;49.476;8.484;2023-06-14T06:16:06;8.57;;;6.47;;
12947;SDS011;6539;49.476;8.484;2023-06-14T06:18:32;8.30;;;5.13;;
12947;SDS011;6539;49.476;8.484;2023-06-14T06:20:57;6.40;;;5.27;;
12947;SDS011;6539;49.476;8.484;2023-06-14T06:23:23;7.83;;;4.73;;
12947;SDS011;6539;49.476;8.484;2023-06-14T06:25:49;7.53;;;4.63;;
12947;SDS011;6539;49.476;8.484;2023-06-14T06:28:15;9.67;;;5.00;;
12947;SDS011;6539;49.476;8.484;2023-06-14T06:30:41;8.30;;;4.53;;
12947;SDS011;6539;49.476;8.484;2023-06-14T06:33:09;7.87;;;4.20;;
12947;SDS011;6539;49.476;8.484;2023-06-14T06:35:38;7.47;;;4.30;;
12947;SDS011;6539;49.476;8.484;2023-06-14T06:38:03;5.33;;;4.37;;
12947;SDS011;6539;49.476;8.484;2023-06-14T06:40:31;6.37;;;4.50;;
12947;SDS011;6539;49.476;8.484;2023-06-14T06:42:57;7.70;;;4.90;;
12947;SDS011;6539;49.476;8.484;2023-06-14T06:45:23;6.70;;;4.57;;
12947;SDS011;6539;49.476;8.484;2023-06-14T06:47:49;5.23;;;4.23;;
12947;SDS011;6539;49.476;8.484;2023-06-14T06:50:15;8.60;;;4.17;;
12947;SDS011;6539;49.476;8.484;2023-06-14T06:52:42;9.73;;;4.50;;
12947;SDS011;6539;49.476;8.484;2023-06-14T06:55:10;8.53;;;4.33;;
12947;SDS011;6539;49.476;8.484;2023-06-14T06:57:41;5.53;;;4.50;;
12947;SDS011;6539;49.476;8.484;2023-06-14T07:00:07;7.30;;;4.70;;
12947;SDS011;6539;49.476;8.484;2023-06-14T07:02:34;4.97;;;4.07;;
12947;SDS011;6539;49.476;8.484;2023-06-14T07:05:01;12.10;;;9.23;;
12947;SDS011;6539;49.476;8.484;2023-06-14T07:07:32;5.47;;;4.47;;
12947;SDS011;6539;49.476;8.484;2023-06-14T07:10:00;8.43;;;4.63;;
12947;SDS011;6539;49.476;8.484;2023-06-14T07:12:29;7.20;;;3.87;;
12947;SDS011;6539;49.476;8.484;2023-06-14T07:14:56;4.90;;;4.30;;
12947;SDS011;6539;49.476;8.484;2023-06-14T07:17:22;7.53;;;4.40;;
12947;SDS011;6539;49.476;8.484;2023-06-14T07:19:50;5.80;;;4.53;;
12947;SDS011;6539;49.476;8.484;2023-06-14T07:22:16;4.87;;;4.40;;
12947;SDS011;6539;49.476;8.484;2023-06-14T07:24:42;6.43;;;4.40;;
12947;SDS011;6539;49.476;8.484;2023-06-14T07:27:13;8.67;;;4.00;;
12947;SDS011;6539;49.476;8.484;2023-06-14T07:29:39;6.10;;;4.33;;
12947;SDS011;6539;49.476;8.484;2023-06-14T07:32:07;8.00;;;4.30;;
12947;SDS011;6539;49.476;8.484;2023-06-14T07:34:38;6.18;;;4.07;;
12947;SDS011;6539;49.476;8.484;2023-06-14T07:37:03;15.02;;;8.25;;
12947;SDS011;6539;49.476;8.484;2023-06-14T07:39:29;10.63;;;6.13;;
12947;SDS011;6539;49.476;8.484;2023-06-14T07:41:57;10.48;;;3.95;;
12947;SDS011;6539;49.476;8.484;2023-06-14T07:44:23;6.35;;;4.30;;
12947;SDS011;6539;49.476;8.484;2023-06-14T07:46:51;6.00;;;3.83;;
12947;SDS011;6539;49.476;8.484;2023-06-14T07:49:23;5.00;;;4.00;;
12947;SDS011;6539;49.476;8.484;2023-06-14T07:51:49;3.85;;;3.50;;
12947;SDS011;6539;49.476;8.484;2023-06-14T07:54:16;6.53;;;4.03;;
12947;SDS011;6539;49.476;8.484;2023-06-14T07:56:42;8.23;;;3.72;;
12947;SDS011;6539;49.476;8.484;2023-06-14T07:59:13;6.13;;;3.70;;
12947;SDS011;6539;49.476;8.484;2023-06-14T08:01:41;6.00;;;4.00;;
12947;SDS011;6539;49.476;8.484;2023-06-14T08:04:12;5.90;;;3.67;;
12947;SDS011;6539;49.476;8.484;2023-06-14T08:06:39;6.18;;;3.75;;
12947;SDS011;6539;49.476;8.484;2023-06-14T08:09:04;4.30;;;3.88;;
12947;SDS011;6539;49.476;8.484;2023-06-14T08:11:32;9.13;;;3.80;;
12947;SDS011;6539;49.476;8.484;2023-06-14T08:14:03;6.07;;;3.75;;
12947;SDS011;6539;49.476;8.484;2023-06-14T08:16:29;5.53;;;4.20;;
12947;SDS011;6539;49.476;8.484;2023-06-14T08:18:55;6.93;;;3.78;;
12947;SDS011;6539;49.476;8.484;2023-06-14T08:21:23;7.80;;;3.72;;
12947;SDS011;6539;49.476;8.484;2023-06-14T08:23:53;4.82;;;3.60;;
12947;SDS011;6539;49.476;8.484;2023-06-14T08:26:25;6.53;;;3.80;;
12947;SDS011;6539;49.476;8.484;2023-06-14T08:28:56;6.32;;;4.85;;
12947;SDS011;6539;49.476;8.484;2023-06-14T08:31:25;5.65;;;4.43;;
12947;SDS011;6539;49.476;8.484;2023-06-14T08:33:53;4.60;;;3.80;;
12947;SDS011;6539;49.476;8.484;2023-06-14T08:36:21;6.70;;;3.47;;
12947;SDS011;6539;49.476;8.484;2023-06-14T08:38:49;6.25;;;3.83;;
12947;SDS011;6539;49.476;8.484;2023-06-14T08:41:19;5.00;;;3.53;;
12947;SDS011;6539;49.476;8.484;2023-06-14T08:43:54;4.20;;;3.65;;
12947;SDS011;6539;49.476;8.484;2023-06-14T08:46:21;4.32;;;3.72;;
12947;SDS011;6539;49.476;8.484;2023-06-14T08:48:55;4.35;;;3.55;;
12947;SDS011;6539;49.476;8.484;2023-06-14T08:51:22;4.22;;;3.20;;
12947;SDS011;6539;49.476;8.484;2023-06-14T08:53:58;8.25;;;6.75;;
12947;SDS011;6539;49.476;8.484;2023-06-14T08:56:31;7.57;;;5.13;;
12947;SDS011;6539;49.476;8.484;2023-06-14T08:59:01;6.55;;;3.40;;
12947;SDS011;6539;49.476;8.484;2023-06-14T09:01:34;5.88;;;3.53;;
12947;SDS011;6539;49.476;8.484;2023-06-14T09:04:02;6.78;;;3.47;;
12947;SDS011;6539;49.476;8.484;2023-06-14T09:06:33;5.72;;;3.65;;
12947;SDS011;6539;49.476;8.484;2023-06-14T09:09:01;6.38;;;3.40;;
12947;SDS011;6539;49.476;8.484;2023-06-14T09:11:29;3.55;;;3.22;;
12947;SDS011;6539;49.476;8.484;2023-06-14T09:13:56;6.63;;;3.00;;
12947;SDS011;6539;49.476;8.484;2023-06-14T09:16:21;7.95;;;3.30;;
12947;SDS011;6539;49.476;8.484;2023-06-14T09:18:47;4.32;;;2.95;;
12947;SDS011;6539;49.476;8.484;2023-06-14T09:21:17;5.13;;;2.78;;
12947;SDS011;6539;49.476;8.484;2023-06-14T09:23:44;5.28;;;2.40;;
12947;SDS011;6539;49.476;8.484;2023-06-14T09:26:13;3.78;;;3.03;;
12947;SDS011;6539;49.476;8.484;2023-06-14T09:28:46;2.80;;;2.58;;
12947;SDS011;6539;49.476;8.484;2023-06-14T09:31:14;4.22;;;3.08;;
12947;SDS011;6539;49.476;8.484;2023-06-14T09:33:49;4.75;;;3.40;;
12947;SDS011;6539;49.476;8.484;2023-06-14T09:36:23;3.60;;;3.30;;
12947;SDS011;6539;49.476;8.484;2023-06-14T09:38:55;5.82;;;3.60;;
12947;SDS011;6539;49.476;8.484;2023-06-14T09:44:04;5.93;;;3.38;;
12947;SDS011;6539;49.476;8.484;2023-06-14T09:46:32;3.42;;;3.10;;
12947;SDS011;6539;49.476;8.484;2023-06-14T09:48:59;3.80;;;2.78;;
12947;SDS011;6539;49.476;8.484;2023-06-14T09:51:29;5.47;;;3.38;;
12947;SDS011;6539;49.476;8.484;2023-06-14T09:53:58;3.55;;;3.13;;
12947;SDS011;6539;49.476;8.484;2023-06-14T09:56:29;8.52;;;3.15;;
12947;SDS011;6539;49.476;8.484;2023-06-14T09:59:06;4.57;;;3.35;;
12947;SDS011;6539;49.476;8.484;2023-06-14T10:01:41;4.25;;;3.42;;
12947;SDS011;6539;49.476;8.484;2023-06-14T10:04:09;7.38;;;3.92;;
12947;SDS011;6539;49.476;8.484;2023-06-14T10:06:45;8.57;;;3.22;;
12947;SDS011;6539;49.476;8.484;2023-06-14T10:09:11;7.20;;;5.40;;
12947;SDS011;6539;49.476;8.484;2023-06-14T10:11:40;3.95;;;3.55;;
12947;SDS011;6539;49.476;8.484;2023-06-14T10:14:09;7.20;;;4.30;;
12947;SDS011;6539;49.476;8.484;2023-06-14T10:19:37;4.70;;;3.00;;
12947;SDS011;6539;49.476;8.484;2023-06-14T10:25:12;3.42;;;3.05;;
12947;SDS011;6539;49.476;8.484;2023-06-14T10:27:38;3.13;;;2.80;;
12947;SDS011;6539;49.476;8.484;2023-06-14T10:30:10;5.93;;;3.20;;
12947;SDS011;6539;49.476;8.484;2023-06-14T10:35:35;5.60;;;5.10;;
12947;SDS011;6539;49.476;8.484;2023-06-14T10:38:08;4.60;;;4.00;;
12947;SDS011;6539;49.476;8.484;2023-06-14T10:40:39;3.95;;;3.53;;
12947;SDS011;6539;49.476;8.484;2023-06-14T10:43:22;4.25;;;3.30;;
12947;SDS011;6539;49.476;8.484;2023-06-14T10:48:56;4.05;;;2.88;;
12947;SDS011;6539;49.476;8.484;2023-06-14T10:51:25;3.17;;;2.78;;
12947;SDS011;6539;49.476;8.484;2023-06-14T10:54:11;3.85;;;2.90;;
12947;SDS011;6539;49.476;8.484;2023-06-14T10:56:38;3.85;;;3.40;;
12947;SDS011;6539;49.476;8.484;2023-06-14T10:59:16;3.33;;;3.05;;
12947;SDS011;6539;49.476;8.484;2023-06-14T11:01:54;5.30;;;2.67;;
12947;SDS011;6539;49.476;8.484;2023-06-14T11:04:49;3.20;;;2.90;;
12947;SDS011;6539;49.476;8.484;2023-06-14T11:13:04;5.38;;;3.40;;
12947;SDS011;6539;49.476;8.484;2023-06-14T11:15:31;3.60;;;3.10;;
12947;SDS011;6539;49.476;8.484;2023-06-14T11:18:05;3.60;;;3.05;;
12947;SDS011;6539;49.476;8.484;2023-06-14T11:20:34;5.07;;;3.53;;
12947;SDS011;6539;49.476;8.484;2023-06-14T11:23:10;4.53;;;3.08;;
12947;SDS011;6539;49.476;8.484;2023-06-14T11:25:36;4.63;;;3.40;;
12947;SDS011;6539;49.476;8.484;2023-06-14T11:28:04;4.07;;;2.92;;
12947;SDS011;6539;49.476;8.484;2023-06-14T11:30:30;3.28;;;2.92;;
12947;SDS011;6539;49.476;8.484;2023-06-14T11:32:58;3.80;;;2.95;;
12947;SDS011;6539;49.476;8.484;2023-06-14T11:35:24;3.50;;;3.20;;
12947;SDS011;6539;49.476;8.484;2023-06-14T11:37:55;4.55;;;3.20;;
12947;SDS011;6539;49.476;8.484;2023-06-14T11:40:27;4.57;;;3.10;;
12947;SDS011;6539;49.476;8.484;2023-06-14T11:43:00;4.85;;;2.85;;
12947;SDS011;6539;49.476;8.484;2023-06-14T11:45:27;3.75;;;3.28;;
12947;SDS011;6539;49.476;8.484;2023-06-14T11:47:55;4.00;;;3.63;;
12947;SDS011;6539;49.476;8.484;2023-06-14T11:50:25;3.97;;;3.15;;
12947;SDS011;6539;49.476;8.484;2023-06-14T11:52:55;3.58;;;2.92;;
12947;SDS011;6539;49.476;8.484;2023-06-14T11:55:27;5.60;;;2.97;;
12947;SDS011;6539;49.476;8.484;2023-06-14T11:57:55;3.38;;;3.08;;
12947;SDS011;6539;49.476;8.484;2023-06-14T12:00:25;3.13;;;2.88;;
12947;SDS011;6539;49.476;8.484;2023-06-14T12:02:56;5.70;;;2.88;;
12947;SDS011;6539;49.476;8.484;2023-06-14T12:05:25;4.50;;;3.28;;
12947;SDS011;6539;49.476;8.484;2023-06-14T12:08:00;6.63;;;3.10;;
12947;SDS011;6539;49.476;8.484;2023-06-14T12:10:28;3.35;;;3.05;;
12947;SDS011;6539;49.476;8.484;2023-06-14T12:12:58;3.30;;;3.00;;
12947;SDS011;6539;49.476;8.484;2023-06-14T12:15:25;4.78;;;3.40;;
12947;SDS011;6539;49.476;8.484;2023-06-14T12:17:54;5.32;;;3.42;;
12947;SDS011;6539;49.476;8.484;2023-06-14T12:20:20;6.40;;;3.20;;
12947;SDS011;6539;49.476;8.484;2023-06-14T12:22:56;3.70;;;2.83;;
12947;SDS011;6539;49.476;8.484;2023-06-14T12:25:34;3.42;;;3.10;;
12947;SDS011;6539;49.476;8.484;2023-06-14T12:28:06;5.07;;;3.08;;
12947;SDS011;6539;49.476;8.484;2023-06-14T12:30:37;4.43;;;3.70;;
12947;SDS011;6539;49.476;8.484;2023-06-14T12:33:04;5.30;;;4.80;;
12947;SDS011;6539;49.476;8.484;2023-06-14T12:35:31;6.97;;;3.78;;
12947;SDS011;6539;49.476;8.484;2023-06-14T12:37:57;4.63;;;3.17;;
12947;SDS011;6539;49.476;8.484;2023-06-14T12:40:25;4.65;;;3.70;;
12947;SDS011;6539;49.476;8.484;2023-06-14T12:42:51;6.20;;;4.57;;
12947;SDS011;6539;49.476;8.484;2023-06-14T12:45:17;5.95;;;3.40;;
12947;SDS011;6539;49.476;8.484;2023-06-14T12:47:45;4.32;;;3.40;;
12947;SDS011;6539;49.476;8.484;2023-06-14T12:50:11;3.70;;;3.05;;
12947;SDS011;6539;49.476;8.484;2023-06-14T12:52:39;10.68;;;3.83;;
12947;SDS011;6539;49.476;8.484;2023-06-14T12:55:07;7.47;;;3.17;;
12947;SDS011;6539;49.476;8.484;2023-06-14T12:57:33;4.75;;;3.72;;
12947;SDS011;6539;49.476;8.484;2023-06-14T13:00:03;4.03;;;3.40;;
12947;SDS011;6539;49.476;8.484;2023-06-14T13:02:34;4.85;;;3.78;;
12947;SDS011;6539;49.476;8.484;2023-06-14T13:05:02;8.80;;;6.72;;
12947;SDS011;6539;49.476;8.484;2023-06-14T13:07:32;6.93;;;3.40;;
12947;SDS011;6539;49.476;8.484;2023-06-14T13:09:59;5.97;;;3.15;;
12947;SDS011;6539;49.476;8.484;2023-06-14T13:12:27;6.13;;;3.22;;
12947;SDS011;6539;49.476;8.484;2023-06-14T13:14:55;4.68;;;3.58;;
12947;SDS011;6539;49.476;8.484;2023-06-14T13:17:23;4.70;;;3.30;;
12947;SDS011;6539;49.476;8.484;2023-06-14T13:19:51;4.35;;;3.00;;
12947;SDS011;6539;49.476;8.484;2023-06-14T13:22:22;7.70;;;6.70;;
12947;SDS011;6539;49.476;8.484;2023-06-14T13:24:50;7.60;;;5.15;;
12947;SDS011;6539;49.476;8.484;2023-06-14T13:27:18;4.55;;;3.58;;
12947;SDS011;6539;49.476;8.484;2023-06-14T13:29:44;6.82;;;4.13;;
12947;SDS011;6539;49.476;8.484;2023-06-14T13:32:11;3.28;;;2.97;;
12947;SDS011;6539;49.476;8.484;2023-06-14T13:34:37;4.10;;;3.00;;
12947;SDS011;6539;49.476;8.484;2023-06-14T13:37:07;6.07;;;3.40;;
12947;SDS011;6539;49.476;8.484;2023-06-14T13:39:33;6.45;;;3.28;;
12947;SDS011;6539;49.476;8.484;2023-06-14T13:41:59;5.93;;;3.42;;
12947;SDS011;6539;49.476;8.484;2023-06-14T13:44:27;10.05;;;8.60;;
12947;SDS011;6539;49.476;8.484;2023-06-14T13:46:53;10.30;;;7.40;;
12947;SDS011;6539;49.476;8.484;2023-06-14T13:49:19;5.57;;;3.72;;
12947;SDS011;6539;49.476;8.484;2023-06-14T13:51:44;3.53;;;3.20;;
12947;SDS011;6539;49.476;8.484;2023-06-14T13:54:12;4.47;;;3.38;;
12947;SDS011;6539;49.476;8.484;2023-06-14T13:56:49;5.13;;;3.10;;
12947;SDS011;6539;49.476;8.484;2023-06-14T13:59:15;5.20;;;3.75;;
12947;SDS011;6539;49.476;8.484;2023-06-14T14:01:43;4.60;;;3.33;;
12947;SDS011;6539;49.476;8.484;2023-06-14T14:04:15;5.25;;;3.08;;
12947;SDS011;6539;49.476;8.484;2023-06-14T14:06:46;5.20;;;3.25;;
12947;SDS011;6539;49.476;8.484;2023-06-14T14:09:12;4.10;;;3.67;;
12947;SDS011;6539;49.476;8.484;2023-06-14T14:11:38;5.35;;;3.63;;
12947;SDS011;6539;49.476;8.484;2023-06-14T14:14:04;4.88;;;3.80;;
12947;SDS011;6539;49.476;8.484;2023-06-14T14:16:30;4.45;;;3.70;;
12947;SDS011;6539;49.476;8.484;2023-06-14T14:18:56;5.40;;;3.75;;
12947;SDS011;6539;49.476;8.484;2023-06-14T14:21:24;5.60;;;3.53;;
12947;SDS011;6539;49.476;8.484;2023-06-14T14:23:50;3.92;;;3.53;;
12947;SDS011;6539;49.476;8.484;2023-06-14T14:26:18;5.45;;;3.40;;
12947;SDS011;6539;49.476;8.484;2023-06-14T14:28:44;4.70;;;3.38;;
12947;SDS011;6539;49.476;8.484;2023-06-14T14:31:09;3.97;;;3.38;;
12947;SDS011;6539;49.476;8.484;2023-06-14T14:33:35;6.93;;;4.10;;
12947;SDS011;6539;49.476;8.484;2023-06-14T14:36:06;4.72;;;3.75;;
12947;SDS011;6539;49.476;8.484;2023-06-14T14:38:34;3.80;;;3.35;;
12947;SDS011;6539;49.476;8.484;2023-06-14T14:41:02;7.05;;;3.63;;
12947;SDS011;6539;49.476;8.484;2023-06-14T14:43:28;8.57;;;3.90;;
12947;SDS011;6539;49.476;8.484;2023-06-14T14:45:56;4.75;;;3.65;;
12947;SDS011;6539;49.476;8.484;2023-06-14T14:48:24;6.25;;;3.88;;
12947;SDS011;6539;49.476;8.484;2023-06-14T14:50:51;6.15;;;3.50;;
12947;SDS011;6539;49.476;8.484;2023-06-14T14:53:17;4.82;;;3.65;;
12947;SDS011;6539;49.476;8.484;2023-06-14T14:55:45;11.25;;;9.20;;
12947;SDS011;6539;49.476;8.484;2023-06-14T14:58:12;7.68;;;4.88;;
12947;SDS011;6539;49.476;8.484;2023-06-14T15:00:41;5.18;;;3.30;;
12947;SDS011;6539;49.476;8.484;2023-06-14T15:03:07;5.63;;;3.70;;
12947;SDS011;6539;49.476;8.484;2023-06-14T15:05:33;4.88;;;3.58;;
12947;SDS011;6539;49.476;8.484;2023-06-14T15:08:01;3.67;;;3.20;;
12947;SDS011;6539;49.476;8.484;2023-06-14T15:10:39;7.03;;;3.67;;
12947;SDS011;6539;49.476;8.484;2023-06-14T15:13:10;8.40;;;3.83;;
12947;SDS011;6539;49.476;8.484;2023-06-14T15:15:38;6.88;;;3.95;;
12947;SDS011;6539;49.476;8.484;2023-06-14T15:18:07;9.00;;;6.47;;
12947;SDS011;6539;49.476;8.484;2023-06-14T15:20:35;9.55;;;6.65;;
12947;SDS011;6539;49.476;8.484;2023-06-14T15:23:06;4.45;;;3.75;;
12947;SDS011;6539;49.476;8.484;2023-06-14T15:25:32;4.97;;;3.53;;
12947;SDS011;6539;49.476;8.484;2023-06-14T15:27:58;5.20;;;3.90;;
12947;SDS011;6539;49.476;8.484;2023-06-14T15:30:31;4.55;;;3.53;;
12947;SDS011;6539;49.476;8.484;2023-06-14T15:33:00;5.38;;;3.90;;
12947;SDS011;6539;49.476;8.484;2023-06-14T15:35:25;8.60;;;3.83;;